createdAt,value
2022-08-25T19:22:56.829Z,76.42
2022-08-25T19:23:56.812Z,76.91
2022-08-25T19:30:23.035Z,77.45
2022-08-25T19:31:19.723Z,78.07
2022-08-25T19:32:20.032Z,78.33
2022-08-25T19:33:31.384Z,78.91
2022-08-25T19:34:19.587Z,78.13
2022-08-25T19:35:19.574Z,78.81
2022-08-25T19:36:22.919Z,78.33
2022-08-25T19:37:19.538Z,77.65
2022-08-25T19:38:33.245Z,78.61
2022-08-25T19:39:19.506Z,78.61
2022-08-25T19:40:19.534Z,78.71
2022-08-25T19:41:19.490Z,77.75
2022-08-25T19:42:36.753Z,77.06
2022-08-25T19:43:19.559Z,77.59
2022-08-25T19:44:19.435Z,77.36
2022-08-25T19:45:19.431Z,78.52
2022-08-25T19:46:19.639Z,78.27
2022-08-25T19:47:19.530Z,78.66
2022-08-25T19:48:19.385Z,78.36
2022-08-25T19:49:19.359Z,77.26
2022-08-25T19:50:19.387Z,77.26
2022-08-25T19:51:21.900Z,77.06
2022-08-25T19:52:19.346Z,77.06
2022-08-25T19:53:19.333Z,77.06
2022-08-25T19:54:19.286Z,77.94
2022-08-25T19:55:19.300Z,77.45
2022-08-25T19:56:19.293Z,77.36
2022-08-25T19:57:27.853Z,77.06
2022-08-25T19:58:19.232Z,77.26
2022-08-25T19:59:19.248Z,76.87
2022-08-25T20:00:19.206Z,76.78
2022-08-25T20:01:19.218Z,77.06
2022-08-25T20:02:19.274Z,76.58
2022-08-25T20:03:19.180Z,76.87
2022-08-25T20:04:19.159Z,77.26
2022-08-25T20:05:23.693Z,77.84
2022-08-25T20:06:19.146Z,77.94
2022-08-25T20:07:19.130Z,78.42
2022-08-25T20:08:19.110Z,77.94
2022-08-25T20:09:35.633Z,77.75
2022-08-25T20:10:19.080Z,77.55
2022-08-25T20:11:19.072Z,78.03
2022-08-25T20:12:19.090Z,78.13
2022-08-25T20:13:19.065Z,79.10
2022-08-25T20:14:19.027Z,78.52
2022-08-25T20:15:19.065Z,78.81
2022-08-25T20:16:19.157Z,79.74
2022-08-25T20:17:23.546Z,79.74
